LFJL/ETZ METAR and TAF weather

Enter ICAO airport designator
Station Type Date Time Source
LFJL METAR 2022/09/26 08:30 UTC NOAA

LFJL 260830Z AUTO 23010KT 9999 FEW013 BKN110 12/09 Q1009 NOSIG


Station Type Date Time Source
LFJL Decoded METAR 2022/09/26 08:30 UTC NOAA

Metz-Nancy-Lorraine, France (LFJL) 48-59N 006-15E
Sep 26, 2022 - 04:30 AM EDT / 2022.09.26 0830 UTC
Wind: from the SW (230 degrees) at 12 MPH (10 KT):0
Visibility: greater than 7 mile(s):0
Sky conditions: mostly cloudy
Temperature: 53 F (12 C)
Dew Point: 48 F (9 C)
Relative Humidity: 81%
Pressure (altimeter): 29.80 in. Hg (1009 hPa)
ob: LFJL 260830Z AUTO 23010KT 9999 FEW013 BKN110 12/09 Q1009 NOSIG
cycle: 8

Station Type Date Time Source
LFJL TAF 2022/09/26 06:21 UTC NOAA

TAF LFJL 260500Z 2606/2706 21010KT 9999 FEW040 BKN100
TEMPO 2608/2612 -RA
BECMG 2612/2615 23015G25KT -RA PROB40
TEMPO 2615/2621 3000 RA BKN009
BECMG 2621/2623 30012KT NSW
TEMPO 2623/2706 4000 SHRA BKN012 SCT020TCU

Example: see airport list